createdAt,value
2018-06-14T00:00:40.693Z,6.50
2018-06-14T00:03:08.944Z,7.40
2018-06-14T00:05:37.212Z,7.47
2018-06-14T00:08:05.448Z,7.70
2018-06-14T00:10:33.672Z,6.73
2018-06-14T00:13:01.650Z,6.63
2018-06-14T00:15:29.876Z,6.30
2018-06-14T00:17:58.173Z,7.43
2018-06-14T00:20:26.455Z,6.97
2018-06-14T00:22:54.749Z,7.50
2018-06-14T00:25:22.966Z,6.27
2018-06-14T00:27:51.242Z,6.17
2018-06-14T00:30:19.463Z,7.70
2018-06-14T00:32:47.712Z,6.20
2018-06-14T00:35:15.915Z,7.33
2018-06-14T00:37:44.115Z,6.20
2018-06-14T00:40:12.287Z,6.63
2018-06-14T00:42:40.520Z,7.07
2018-06-14T00:45:08.889Z,7.00
2018-06-14T00:47:37.165Z,7.73
2018-06-14T00:50:05.559Z,7.70
2018-06-14T00:52:33.811Z,8.67
2018-06-14T00:55:02.096Z,7.57
2018-06-14T00:57:31.580Z,7.53
2018-06-14T00:59:59.810Z,7.93
2018-06-14T01:02:28.345Z,6.90
2018-06-14T01:04:56.606Z,8.77
2018-06-14T01:07:24.831Z,6.87
2018-06-14T01:09:53.204Z,7.50
2018-06-14T01:12:21.454Z,7.43
2018-06-14T01:14:49.752Z,7.23
2018-06-14T01:17:17.995Z,7.43
2018-06-14T01:19:46.243Z,8.40
2018-06-14T01:22:14.464Z,8.27
2018-06-14T01:24:42.678Z,8.93
2018-06-14T01:27:11.643Z,8.80
2018-06-14T01:29:40.011Z,7.73
2018-06-14T01:32:08.230Z,6.90
2018-06-14T01:34:36.503Z,7.70
2018-06-14T01:37:04.521Z,8.07
2018-06-14T01:39:32.736Z,8.30
2018-06-14T01:42:00.960Z,7.97
2018-06-14T01:44:29.233Z,8.80
2018-06-14T01:46:57.516Z,7.30
2018-06-14T01:49:25.573Z,8.83
2018-06-14T01:51:53.586Z,7.53
2018-06-14T01:54:21.824Z,7.63
2018-06-14T01:56:50.039Z,8.10
2018-06-14T01:59:18.368Z,9.03
2018-06-14T02:01:46.579Z,7.40
2018-06-14T02:04:14.851Z,7.77
2018-06-14T02:06:43.104Z,9.33
2018-06-14T02:09:11.473Z,8.03
2018-06-14T02:11:39.731Z,8.10
2018-06-14T02:14:08.007Z,9.07
2018-06-14T02:16:36.239Z,8.63
2018-06-14T02:19:04.517Z,8.90
2018-06-14T02:21:32.764Z,7.90
2018-06-14T02:24:01.000Z,8.17
2018-06-14T02:26:29.246Z,8.00
2018-06-14T02:28:57.447Z,8.10
2018-06-14T02:31:25.709Z,8.77
2018-06-14T02:33:53.936Z,8.97
2018-06-14T02:36:22.217Z,9.83
2018-06-14T02:38:50.439Z,9.90
2018-06-14T02:41:18.663Z,9.10
2018-06-14T02:43:46.936Z,8.63
2018-06-14T02:46:15.158Z,9.27
2018-06-14T02:48:43.432Z,10.23
2018-06-14T02:51:11.436Z,10.50
2018-06-14T02:53:39.693Z,9.60
2018-06-14T02:56:07.963Z,10.70
2018-06-14T02:58:36.218Z,10.43
2018-06-14T03:01:04.475Z,10.20
2018-06-14T03:03:32.714Z,10.00
2018-06-14T03:06:00.981Z,10.40
2018-06-14T03:08:29.228Z,9.93
2018-06-14T03:10:57.178Z,9.83
2018-06-14T03:13:25.438Z,9.57
2018-06-14T03:15:53.659Z,10.57
2018-06-14T03:18:21.954Z,10.33
2018-06-14T03:20:50.221Z,10.13
2018-06-14T03:23:18.460Z,10.63
2018-06-14T03:25:47.050Z,9.00
2018-06-14T03:28:15.311Z,9.83
2018-06-14T03:30:43.679Z,10.20
2018-06-14T03:33:11.925Z,9.60
2018-06-14T03:35:40.199Z,10.30
2018-06-14T03:38:08.427Z,9.03
2018-06-14T03:40:36.694Z,10.43
2018-06-14T03:43:05.005Z,10.60
2018-06-14T03:45:33.223Z,10.67
2018-06-14T03:48:01.435Z,10.20
2018-06-14T03:50:29.674Z,9.50
2018-06-14T03:52:57.943Z,10.50
2018-06-14T03:55:26.166Z,9.97
2018-06-14T03:57:54.369Z,9.93
2018-06-14T04:00:22.396Z,10.60
2018-06-14T04:02:50.445Z,11.40
2018-06-14T04:05:18.648Z,10.90
2018-06-14T04:07:46.839Z,11.20
2018-06-14T04:10:15.053Z,10.00
2018-06-14T04:12:43.272Z,11.73
2018-06-14T04:15:11.484Z,10.80
2018-06-14T04:17:39.458Z,10.73
2018-06-14T04:20:07.672Z,11.23
2018-06-14T04:22:35.873Z,11.30
2018-06-14T04:25:04.183Z,10.83
2018-06-14T04:27:32.484Z,10.70
2018-06-14T04:30:00.434Z,11.70
2018-06-14T04:32:28.692Z,11.70
2018-06-14T04:34:56.923Z,13.60
2018-06-14T04:37:25.108Z,11.83
2018-06-14T04:39:53.362Z,11.63
2018-06-14T04:42:21.527Z,11.63
2018-06-14T04:44:49.742Z,11.37
2018-06-14T04:47:17.927Z,11.20
2018-06-14T04:49:46.242Z,10.67
2018-06-14T04:52:14.454Z,11.00
2018-06-14T04:54:46.167Z,10.90
2018-06-14T04:57:14.403Z,10.67
2018-06-14T04:59:42.778Z,12.20
2018-06-14T05:02:11.072Z,12.23
2018-06-14T05:04:39.268Z,10.27
2018-06-14T05:07:07.490Z,11.20
2018-06-14T05:09:35.728Z,10.50
2018-06-14T05:12:03.944Z,10.73
2018-06-14T05:14:32.153Z,12.30
2018-06-14T05:17:00.400Z,12.47
2018-06-14T05:19:28.601Z,11.07
2018-06-14T05:21:56.792Z,10.93
2018-06-14T05:24:25.018Z,10.80
2018-06-14T05:26:53.963Z,10.53
2018-06-14T05:29:22.443Z,10.73
2018-06-14T05:31:50.699Z,11.27
2018-06-14T05:34:19.189Z,10.50
2018-06-14T05:36:47.205Z,10.40
2018-06-14T05:39:15.424Z,10.90
2018-06-14T05:41:43.641Z,10.37
2018-06-14T05:44:11.836Z,10.60
2018-06-14T05:46:40.040Z,10.20
2018-06-14T05:49:08.230Z,10.40
2018-06-14T05:51:36.451Z,10.77
2018-06-14T05:54:04.676Z,11.20
2018-06-14T05:56:32.868Z,11.30
2018-06-14T05:59:01.157Z,11.20
2018-06-14T06:01:29.341Z,11.40
2018-06-14T06:03:57.591Z,9.70
2018-06-14T06:06:25.804Z,10.33
2018-06-14T06:08:54.222Z,10.87
2018-06-14T06:11:22.730Z,10.40
2018-06-14T06:13:51.081Z,10.50
2018-06-14T06:16:19.317Z,10.87
2018-06-14T06:18:47.296Z,10.70
2018-06-14T06:21:15.509Z,10.37
2018-06-14T06:23:43.707Z,10.73
2018-06-14T06:26:11.954Z,10.23
2018-06-14T06:28:40.100Z,9.80
2018-06-14T06:31:08.070Z,10.90
2018-06-14T06:33:36.272Z,9.70
2018-06-14T06:36:04.545Z,10.47
2018-06-14T06:38:32.720Z,11.03
2018-06-14T06:41:00.952Z,11.37
2018-06-14T06:43:29.165Z,9.57
2018-06-14T06:45:57.475Z,10.13
2018-06-14T06:48:25.676Z,10.83
2018-06-14T06:50:54.012Z,10.53
2018-06-14T06:53:22.292Z,10.10
2018-06-14T06:55:50.464Z,11.57
2018-06-14T06:58:18.692Z,11.13
2018-06-14T07:00:46.890Z,11.07
2018-06-14T07:03:15.136Z,10.47
2018-06-14T07:05:43.361Z,10.37
2018-06-14T07:08:11.584Z,11.67
2018-06-14T07:10:40.019Z,11.73
2018-06-14T07:13:08.333Z,9.60
2018-06-14T07:15:36.599Z,11.00
2018-06-14T07:18:04.789Z,8.13
2018-06-14T07:20:33.183Z,10.90
2018-06-14T07:23:01.388Z,10.17
2018-06-14T07:25:29.797Z,11.57
2018-06-14T07:27:58.067Z,12.10
2018-06-14T07:30:27.411Z,11.00
2018-06-14T07:32:55.407Z,9.90
2018-06-14T07:35:23.672Z,9.97
2018-06-14T07:37:51.868Z,9.10
2018-06-14T07:40:20.123Z,8.50
2018-06-14T07:42:48.368Z,10.53
2018-06-14T07:45:17.093Z,10.10
2018-06-14T07:47:48.352Z,10.17
2018-06-14T07:50:16.880Z,10.47
2018-06-14T07:52:45.100Z,9.47
2018-06-14T07:55:13.325Z,10.60
2018-06-14T07:57:41.564Z,10.67
2018-06-14T08:00:09.799Z,7.43
2018-06-14T08:02:37.973Z,9.40
2018-06-14T08:05:06.205Z,10.77
2018-06-14T08:07:34.436Z,10.57
2018-06-14T08:10:02.664Z,12.30
2018-06-14T08:12:30.994Z,10.47
2018-06-14T08:14:59.159Z,9.70
2018-06-14T08:17:27.400Z,9.40
2018-06-14T08:19:55.711Z,8.23
2018-06-14T08:22:23.946Z,8.37
2018-06-14T08:24:52.204Z,9.00
2018-06-14T08:27:20.444Z,8.73
2018-06-14T08:29:48.665Z,9.67
2018-06-14T08:32:16.892Z,7.43
2018-06-14T08:34:45.092Z,8.10
2018-06-14T08:37:13.327Z,7.00
2018-06-14T08:39:41.512Z,5.80
2018-06-14T08:42:09.745Z,6.67
2018-06-14T08:44:37.936Z,8.00
2018-06-14T08:47:06.186Z,6.30
2018-06-14T08:49:34.411Z,7.43
2018-06-14T08:52:02.615Z,6.87
2018-06-14T08:54:30.864Z,8.40
2018-06-14T08:56:59.075Z,7.60
2018-06-14T08:59:27.392Z,6.50
2018-06-14T09:01:55.609Z,7.50
2018-06-14T09:04:23.911Z,8.10
2018-06-14T09:06:52.114Z,7.70
2018-06-14T09:09:20.356Z,6.80
2018-06-14T09:11:48.561Z,7.37
2018-06-14T09:14:16.824Z,7.50
2018-06-14T09:16:45.017Z,8.00
2018-06-14T09:19:13.325Z,7.37
2018-06-14T09:21:41.555Z,6.83
2018-06-14T09:24:09.768Z,7.63
2018-06-14T09:26:37.976Z,5.30
2018-06-14T09:29:06.189Z,6.83
2018-06-14T09:31:34.466Z,6.90
2018-06-14T09:34:02.668Z,7.83
2018-06-14T09:36:31.556Z,6.60
2018-06-14T09:38:59.737Z,3.87
2018-06-14T09:41:27.964Z,5.47
2018-06-14T09:43:56.164Z,6.27
2018-06-14T09:46:24.388Z,5.37
2018-06-14T09:48:58.067Z,4.30
2018-06-14T09:51:26.291Z,4.67
2018-06-14T09:53:54.515Z,3.80
2018-06-14T09:56:22.726Z,4.53
2018-06-14T09:58:50.903Z,4.77
2018-06-14T10:01:19.134Z,4.13
2018-06-14T10:03:47.340Z,3.67
2018-06-14T10:06:15.551Z,4.17
2018-06-14T10:08:43.773Z,4.70
2018-06-14T10:11:12.759Z,4.10
2018-06-14T10:13:40.987Z,3.50
2018-06-14T10:16:09.184Z,3.90
2018-06-14T10:18:37.196Z,3.20
2018-06-14T10:21:05.368Z,3.80
2018-06-14T10:23:33.608Z,3.63
2018-06-14T10:26:01.793Z,4.33
2018-06-14T10:28:30.028Z,4.30
2018-06-14T10:30:58.271Z,3.73
2018-06-14T10:33:26.533Z,3.30
2018-06-14T10:35:55.131Z,3.93
2018-06-14T10:38:23.350Z,3.87
2018-06-14T10:40:51.612Z,4.40
2018-06-14T10:43:19.828Z,3.00
2018-06-14T10:45:48.055Z,3.63
2018-06-14T10:48:16.272Z,3.00
2018-06-14T10:50:44.536Z,3.07
2018-06-14T10:53:12.748Z,3.80
2018-06-14T10:55:40.985Z,3.50
2018-06-14T10:58:09.189Z,2.93
2018-06-14T11:00:37.398Z,2.80
2018-06-14T11:03:05.591Z,2.70
2018-06-14T11:05:33.586Z,3.77
2018-06-14T11:08:01.764Z,3.70
2018-06-14T11:10:30.068Z,3.30
2018-06-14T11:12:58.268Z,2.87
2018-06-14T11:15:26.456Z,4.23
2018-06-14T11:17:54.702Z,2.90
2018-06-14T11:20:22.987Z,3.17
2018-06-14T11:22:51.196Z,3.43
2018-06-14T11:25:19.452Z,3.80
2018-06-14T11:27:47.668Z,3.60
2018-06-14T11:30:15.902Z,3.97
2018-06-14T11:32:44.116Z,3.70
2018-06-14T11:35:12.380Z,4.53
2018-06-14T11:37:40.632Z,3.30
2018-06-14T11:40:08.908Z,4.30
2018-06-14T11:42:37.154Z,3.87
2018-06-14T11:45:05.376Z,3.20
2018-06-14T11:47:33.583Z,4.27
2018-06-14T11:50:01.812Z,4.17
2018-06-14T11:52:30.028Z,3.63
2018-06-14T11:54:58.265Z,4.17
2018-06-14T11:57:26.464Z,4.13
2018-06-14T11:59:54.792Z,4.90
2018-06-14T12:02:23.374Z,5.10
2018-06-14T12:04:52.469Z,4.20
2018-06-14T12:07:20.711Z,4.43
2018-06-14T12:09:49.043Z,4.27
2018-06-14T12:12:17.728Z,4.90
2018-06-14T12:14:46.441Z,3.40
2018-06-14T12:17:14.734Z,4.97
2018-06-14T12:19:42.941Z,3.70
2018-06-14T12:22:11.140Z,4.93
2018-06-14T12:24:39.622Z,5.07
2018-06-14T12:27:07.956Z,5.27
2018-06-14T12:29:36.168Z,6.27
2018-06-14T12:32:04.472Z,6.73
2018-06-14T12:34:32.761Z,6.37
2018-06-14T12:37:00.984Z,6.03
2018-06-14T12:39:29.249Z,16.10
2018-06-14T12:41:57.496Z,17.90
2018-06-14T12:44:25.741Z,11.50
2018-06-14T12:46:54.338Z,5.73
2018-06-14T12:49:22.577Z,6.43
2018-06-14T12:51:50.833Z,6.47
2018-06-14T12:54:19.522Z,6.33
2018-06-14T12:56:47.729Z,5.83
2018-06-14T12:59:15.998Z,6.50
2018-06-14T13:01:44.003Z,6.73
2018-06-14T13:04:12.297Z,6.70
2018-06-14T13:06:40.696Z,6.70
2018-06-14T13:09:10.624Z,6.37
2018-06-14T13:11:38.943Z,8.30
2018-06-14T13:14:07.231Z,6.67
2018-06-14T13:16:35.635Z,7.23
2018-06-14T13:19:03.973Z,8.27
2018-06-14T13:21:32.286Z,7.57
2018-06-14T13:24:00.583Z,7.73
2018-06-14T13:26:29.100Z,8.90
2018-06-14T13:28:57.560Z,11.00
2018-06-14T13:31:25.827Z,8.40
2018-06-14T13:33:54.136Z,7.20
2018-06-14T13:36:22.524Z,7.30
2018-06-14T13:38:50.914Z,6.23
2018-06-14T13:41:19.389Z,7.53
2018-06-14T13:43:47.604Z,8.03
2018-06-14T13:46:15.822Z,8.40
2018-06-14T13:48:44.189Z,7.90
2018-06-14T13:51:12.411Z,7.07
2018-06-14T13:53:40.908Z,7.50
2018-06-14T13:56:09.111Z,8.17
2018-06-14T13:58:37.344Z,7.10
2018-06-14T14:01:05.878Z,7.80
2018-06-14T14:03:33.760Z,8.50
2018-06-14T14:06:02.072Z,8.73
2018-06-14T14:08:30.127Z,8.40
2018-06-14T14:10:59.238Z,7.60
2018-06-14T14:13:27.577Z,8.60
2018-06-14T14:15:55.556Z,9.40
2018-06-14T14:18:23.864Z,9.97
2018-06-14T14:20:52.187Z,8.63
2018-06-14T14:23:20.533Z,7.53
2018-06-14T14:25:48.822Z,8.60
2018-06-14T14:28:17.028Z,8.57
2018-06-14T14:30:45.356Z,7.33
2018-06-14T14:33:13.565Z,8.33
2018-06-14T14:35:41.802Z,8.90
2018-06-14T14:38:10.054Z,11.23
2018-06-14T14:40:38.421Z,10.57
2018-06-14T14:43:06.788Z,9.77
2018-06-14T14:45:35.020Z,8.20
2018-06-14T14:48:03.273Z,8.37
2018-06-14T14:50:31.302Z,8.80
2018-06-14T14:52:59.600Z,8.30
2018-06-14T14:55:27.776Z,9.33
2018-06-14T14:57:56.137Z,9.90
2018-06-14T15:00:24.521Z,8.10
2018-06-14T15:02:52.736Z,7.77
2018-06-14T15:05:20.945Z,6.83
2018-06-14T15:07:49.183Z,7.10
2018-06-14T15:10:17.387Z,6.57
2018-06-14T15:12:45.787Z,6.80
2018-06-14T15:15:14.146Z,5.43
2018-06-14T15:17:42.358Z,7.03
2018-06-14T15:20:10.595Z,6.10
2018-06-14T15:22:38.848Z,7.47
2018-06-14T15:25:07.143Z,7.37
2018-06-14T15:27:35.345Z,7.27
2018-06-14T15:30:03.592Z,7.47
2018-06-14T15:32:31.790Z,8.20
2018-06-14T15:35:00.008Z,7.30
2018-06-14T15:37:28.248Z,8.40
2018-06-14T15:39:56.524Z,7.30
2018-06-14T15:42:24.727Z,8.03
2018-06-14T15:44:52.943Z,7.83
2018-06-14T15:47:21.152Z,7.70
2018-06-14T15:49:49.368Z,6.87
2018-06-14T15:52:17.588Z,7.43
2018-06-14T15:54:55.968Z,7.87
2018-06-14T15:57:23.934Z,6.97
2018-06-14T15:59:52.186Z,8.17
2018-06-14T16:02:20.403Z,7.27
2018-06-14T16:04:48.629Z,7.97
2018-06-14T16:07:16.840Z,6.90
2018-06-14T16:09:45.095Z,7.20
2018-06-14T16:12:13.343Z,7.47
2018-06-14T16:14:41.531Z,7.43
2018-06-14T16:17:09.502Z,7.97
2018-06-14T16:19:37.752Z,6.10
2018-06-14T16:22:05.943Z,7.77
2018-06-14T16:24:34.144Z,8.03
2018-06-14T16:27:02.406Z,9.30
2018-06-14T16:29:30.648Z,8.50
2018-06-14T16:31:58.870Z,7.73
2018-06-14T16:34:27.100Z,7.70
2018-06-14T16:36:55.339Z,8.83
2018-06-14T16:39:23.669Z,9.30
2018-06-14T16:41:52.602Z,9.77
2018-06-14T16:44:20.827Z,9.13
2018-06-14T16:46:49.388Z,6.53
2018-06-14T16:49:18.091Z,9.90
2018-06-14T16:51:47.093Z,9.00
2018-06-14T16:54:15.435Z,8.97
2018-06-14T16:56:43.961Z,8.50
2018-06-14T16:59:12.244Z,9.10
2018-06-14T17:01:40.574Z,8.77
2018-06-14T17:04:08.768Z,9.40
2018-06-14T17:06:37.004Z,10.03
2018-06-14T17:09:07.239Z,9.57
2018-06-14T17:11:35.912Z,9.97
2018-06-14T17:14:04.096Z,10.50
2018-06-14T17:16:32.295Z,11.07
2018-06-14T17:19:01.452Z,11.45
2018-06-14T17:21:29.818Z,13.03
2018-06-14T17:23:58.005Z,14.40
2018-06-14T17:26:25.979Z,15.90
2018-06-14T17:28:54.201Z,14.30
2018-06-14T17:31:22.431Z,12.87
2018-06-14T17:33:50.615Z,12.10
2018-06-14T17:36:18.857Z,14.70
2018-06-14T17:38:47.128Z,13.10
2018-06-14T17:41:15.449Z,12.03
2018-06-14T17:43:44.251Z,11.20
2018-06-14T17:46:12.322Z,13.57
2018-06-14T17:48:40.685Z,12.93
2018-06-14T17:51:08.944Z,12.63
2018-06-14T17:53:37.170Z,12.50
2018-06-14T17:56:05.670Z,11.77
2018-06-14T17:58:33.939Z,14.07
2018-06-14T18:01:02.719Z,12.50
2018-06-14T18:03:30.983Z,11.50
2018-06-14T18:05:59.235Z,12.20
2018-06-14T18:08:27.952Z,11.00
2018-06-14T18:10:56.234Z,10.70
2018-06-14T18:13:24.469Z,10.63
2018-06-14T18:15:52.699Z,12.53
2018-06-14T18:18:20.970Z,11.80
2018-06-14T18:20:48.967Z,11.70
2018-06-14T18:23:17.279Z,11.90
2018-06-14T18:25:45.439Z,13.93
2018-06-14T18:28:13.646Z,13.03
2018-06-14T18:30:41.895Z,12.97
2018-06-14T18:33:10.117Z,12.83
2018-06-14T18:35:38.407Z,12.87
2018-06-14T18:38:06.781Z,11.27
2018-06-14T18:40:34.961Z,13.40
2018-06-14T18:43:03.198Z,12.20
2018-06-14T18:45:31.390Z,12.37
2018-06-14T18:47:59.665Z,12.50
2018-06-14T18:50:28.048Z,14.03
2018-06-14T18:52:56.248Z,13.03
2018-06-14T18:55:24.460Z,12.07
2018-06-14T18:57:52.701Z,14.60
2018-06-14T19:00:20.932Z,13.70
2018-06-14T19:02:49.159Z,15.03
2018-06-14T19:05:17.422Z,12.10
2018-06-14T19:07:45.618Z,13.07
2018-06-14T19:10:13.841Z,13.23
2018-06-14T19:12:42.065Z,14.90
2018-06-14T19:15:10.296Z,14.43
2018-06-14T19:17:38.640Z,15.23
2018-06-14T19:20:06.941Z,14.77
2018-06-14T19:22:35.162Z,14.93
2018-06-14T19:25:03.148Z,14.33
2018-06-14T19:27:31.365Z,15.37
2018-06-14T19:29:59.593Z,14.27
2018-06-14T19:32:27.813Z,14.67
2018-06-14T19:34:56.015Z,14.50
2018-06-14T19:37:24.248Z,13.80
2018-06-14T19:39:53.395Z,15.03
2018-06-14T19:42:21.649Z,13.60
2018-06-14T19:44:49.952Z,16.00
2018-06-14T19:47:18.195Z,14.33
2018-06-14T19:49:46.457Z,13.90
2018-06-14T19:52:14.712Z,15.10
2018-06-14T19:54:42.967Z,13.50
2018-06-14T19:57:11.630Z,14.50
2018-06-14T19:59:39.641Z,14.07
2018-06-14T20:02:08.005Z,14.97
2018-06-14T20:04:36.979Z,15.60
2018-06-14T20:07:05.585Z,16.67
2018-06-14T20:09:33.921Z,16.50
2018-06-14T20:12:02.637Z,15.30
2018-06-14T20:14:31.716Z,17.33
2018-06-14T20:16:59.925Z,15.40
2018-06-14T20:19:28.224Z,17.23
2018-06-14T20:21:56.775Z,17.13
2018-06-14T20:24:25.155Z,17.30
2018-06-14T20:26:53.181Z,14.80
2018-06-14T20:29:21.480Z,18.07
2018-06-14T20:31:49.721Z,16.83
2018-06-14T20:34:18.388Z,17.23
2018-06-14T20:36:46.950Z,16.90
2018-06-14T20:39:15.603Z,16.37
2018-06-14T20:41:43.843Z,16.30
2018-06-14T20:44:12.026Z,17.47
2018-06-14T20:46:40.749Z,18.03
2018-06-14T20:49:09.208Z,18.93
2018-06-14T20:51:37.483Z,18.77
2018-06-14T20:54:05.660Z,17.70
2018-06-14T20:56:33.875Z,17.83
2018-06-14T20:59:02.125Z,18.27
2018-06-14T21:01:30.436Z,17.00
2018-06-14T21:03:58.656Z,16.60
2018-06-14T21:06:27.704Z,17.40
2018-06-14T21:08:55.933Z,19.97
2018-06-14T21:11:24.141Z,17.20
2018-06-14T21:13:52.341Z,19.70
2018-06-14T21:16:20.569Z,19.20
2018-06-14T21:18:48.792Z,22.23
2018-06-14T21:21:16.996Z,18.87
2018-06-14T21:23:45.217Z,18.73
2018-06-14T21:26:13.429Z,18.17
2018-06-14T21:28:41.617Z,20.10
2018-06-14T21:31:09.875Z,20.93
2018-06-14T21:33:37.883Z,18.97
2018-06-14T21:36:06.072Z,20.57
2018-06-14T21:38:34.270Z,20.50
2018-06-14T21:41:02.640Z,16.83
2018-06-14T21:43:30.837Z,20.83
2018-06-14T21:45:58.771Z,21.10
2018-06-14T21:48:27.015Z,22.30
2018-06-14T21:50:55.217Z,22.57
2018-06-14T21:53:23.451Z,23.03
2018-06-14T21:55:51.638Z,21.43
2018-06-14T21:58:19.899Z,22.13
2018-06-14T22:00:48.076Z,23.57
2018-06-14T22:03:21.711Z,21.23
2018-06-14T22:05:49.934Z,23.80
2018-06-14T22:08:18.140Z,22.87
2018-06-14T22:10:46.477Z,23.60
2018-06-14T22:13:14.706Z,22.47
2018-06-14T22:15:43.182Z,24.43
2018-06-14T22:18:11.425Z,25.70
2018-06-14T22:20:39.614Z,22.43
2018-06-14T22:23:07.877Z,23.00
2018-06-14T22:25:36.044Z,24.70
2018-06-14T22:28:04.271Z,23.70
2018-06-14T22:30:32.485Z,24.70
2018-06-14T22:33:11.866Z,24.37
2018-06-14T22:35:40.061Z,23.90
2018-06-14T22:38:08.280Z,21.60
2018-06-14T22:40:36.492Z,25.10
2018-06-14T22:43:04.714Z,23.27
2018-06-14T22:45:32.936Z,25.10
2018-06-14T22:48:01.171Z,23.50
2018-06-14T22:50:40.496Z,18.63
2018-06-14T22:53:09.782Z,23.87
2018-06-14T22:55:38.036Z,24.10
2018-06-14T22:58:06.254Z,25.47
2018-06-14T23:01:50.738Z,27.17
2018-06-14T23:04:27.324Z,26.20
2018-06-14T23:06:55.342Z,26.97
2018-06-14T23:10:42.362Z,22.67
2018-06-14T23:13:12.834Z,26.37
2018-06-14T23:15:41.090Z,26.97
2018-06-14T23:18:09.278Z,26.20
2018-06-14T23:20:37.740Z,25.57
2018-06-14T23:23:06.414Z,27.67
2018-06-14T23:25:35.108Z,27.70
2018-06-14T23:28:03.441Z,24.63
2018-06-14T23:30:31.652Z,26.67
2018-06-14T23:32:59.868Z,28.00
2018-06-14T23:35:28.048Z,28.17
2018-06-14T23:37:56.272Z,26.00
2018-06-14T23:40:24.476Z,29.17
2018-06-14T23:42:52.696Z,27.20
2018-06-14T23:45:20.880Z,30.37
2018-06-14T23:47:49.076Z,29.30
2018-06-14T23:50:17.456Z,29.63
2018-06-14T23:52:45.701Z,30.77
2018-06-14T23:55:13.939Z,28.60
2018-06-14T23:57:42.123Z,27.87
